Dessau, Texas
Current Conditions -  °F | °C
As of 5:35 PM on Monday 20 Oct 2014 (Local Time) from KEDC Reporting Station
Clear Clear  
Wind Chill: 79°   Ceiling: Unl
Heat Index: 80°   Visibility: 10mi
Dew Point: 57°   Wind: 6mph
Humidity: 47%   Direction: 110°ESE
Pressure: 30"   Gusts: NA
Location:  30.3795°N, 97.676°W
Report Text: KEDC 202235Z AUTO 11005KT 10SM CLR 26/14 A3000 RMK AO2
Loading
Personal Weather Stations






























Interactive Weather Map New forecast layout! Learn more

10-Day Weather Forecast

Advertisements
Track Severe Weather on mobile